Time;durP1;ratioP1;P1;durP2;ratioP2;P2;SDS_P1;SDS_P2;PMS_P1;PMS_P2;Temp;Humidity;BMP_temperature;BMP_pressure;BME280_temperature;BME280_humidity;BME280_pressure;Samples;Min_cycle;Max_cycle;Signal;HPM_P1;HPM_P2
2022/08/29 00:02:15;;;;;;;7.50;3.30;;;22.10;59.40;;;;;;5033342;28;20252;-94
2022/08/29 00:04:42;;;;;;;5.77;2.73;;;22.10;59.00;;;;;;5032732;28;20204;-94
2022/08/29 00:07:09;;;;;;;10.60;3.87;;;22.10;58.80;;;;;;5032760;28;20291;-94
2022/08/29 00:10:08;;;;;;;7.17;3.27;;;22.10;59.00;;;;;;5031156;28;20294;-94
2022/08/29 00:12:36;;;;;;;13.07;4.83;;;22.00;59.20;;;;;;5031217;28;20706;-93
2022/08/29 00:15:07;;;;;;;4.23;2.10;;;22.00;58.90;;;;;;5031953;28;20300;-94
2022/08/29 00:17:35;;;;;;;10.80;3.63;;;22.00;59.10;;;;;;5032478;28;20636;-94
2022/08/29 00:20:04;;;;;;;7.67;2.90;;;22.00;59.10;;;;;;5032265;28;20208;-95
2022/08/29 00:25:35;;;;;;;5.83;2.80;;;22.00;59.50;;;;;;5031671;28;20215;-94
2022/08/29 00:28:03;;;;;;;7.77;3.00;;;21.90;59.30;;;;;;5031656;28;20231;-94
2022/08/29 00:30:32;;;;;;;6.27;2.67;;;21.90;59.30;;;;;;5036358;28;20252;-94
2022/08/29 00:33:01;;;;;;;9.03;3.13;;;21.90;59.30;;;;;;5035231;28;20201;-95
2022/08/29 00:35:32;;;;;;;6.63;2.40;;;21.90;59.30;;;;;;5033663;28;20267;-94
2022/08/29 00:37:59;;;;;;;6.13;2.90;;;21.90;59.50;;;;;;5032412;28;20504;-93
2022/08/29 00:40:31;;;;;;;15.17;5.30;;;21.90;59.40;;;;;;5044277;28;20202;-94
2022/08/29 00:43:00;;;;;;;9.53;3.60;;;21.80;59.50;;;;;;5036518;28;20290;-94
2022/08/29 00:45:28;;;;;;;8.50;3.83;;;21.80;59.40;;;;;;5043606;28;20205;-94
2022/08/29 00:48:18;;;;;;;5.63;2.40;;;21.80;59.40;;;;;;5044078;28;20231;-95
2022/08/29 00:51:25;;;;;;;4.83;2.37;;;21.80;59.60;;;;;;5045413;28;20199;-95
2022/08/29 00:53:58;;;;;;;7.37;3.17;;;21.80;60.00;;;;;;5062787;28;20238;-94
2022/08/29 00:56:32;;;;;;;9.63;3.97;;;21.80;59.60;;;;;;5059938;28;20193;-94
2022/08/29 00:59:08;;;;;;;5.93;2.70;;;21.80;60.80;;;;;;5053394;28;20243;-94
2022/08/29 01:04:21;;;;;;;8.87;3.73;;;21.70;59.60;;;;;;5065471;23;20255;-93
2022/08/29 01:06:49;;;;;;;8.43;3.37;;;21.70;59.60;;;;;;5053007;28;20270;-95
2022/08/29 01:12:18;;;;;;;6.90;2.90;;;21.60;59.80;;;;;;5059229;23;20346;-95
2022/08/29 01:14:58;;;;;;;9.27;2.73;;;21.70;59.90;;;;;;5051644;28;20240;-94
2022/08/29 01:17:29;;;;;;;5.80;2.50;;;21.60;60.10;;;;;;5052615;28;20199;-94
2022/08/29 01:20:06;;;;;;;8.00;3.13;;;21.60;60.00;;;;;;5051876;28;20207;-95
2022/08/29 01:23:12;;;;;;;7.77;3.13;;;21.60;60.00;;;;;;5051866;28;20219;-93
2022/08/29 01:25:49;;;;;;;9.57;3.33;;;21.60;61.50;;;;;;5051950;28;20200;-94
2022/08/29 01:28:19;;;;;;;7.23;3.03;;;21.50;60.40;;;;;;5051708;28;20204;-95
2022/08/29 01:31:06;;;;;;;8.43;3.60;;;21.50;60.20;;;;;;5051383;28;20228;-95
2022/08/29 01:33:44;;;;;;;7.43;2.80;;;21.50;60.90;;;;;;5051644;28;20210;-94
2022/08/29 01:36:17;;;;;;;6.67;2.97;;;21.50;60.80;;;;;;5052294;28;20262;-95
2022/08/29 01:38:46;;;;;;;8.27;3.03;;;21.50;60.70;;;;;;5054386;28;20208;-95
2022/08/29 01:41:18;;;;;;;5.43;2.70;;;21.40;60.50;;;;;;5053840;28;20208;-94
2022/08/29 01:43:48;;;;;;;6.23;2.67;;;21.50;60.90;;;;;;5052581;28;20227;-94
2022/08/29 01:46:18;;;;;;;6.80;2.77;;;21.40;60.70;;;;;;5052272;28;20614;-95
2022/08/29 01:48:46;;;;;;;8.57;3.33;;;21.40;60.80;;;;;;5052453;28;20298;-95
2022/08/29 01:51:18;;;;;;;8.20;3.17;;;21.40;60.80;;;;;;5054367;28;20645;-94
2022/08/29 01:54:06;;;;;;;4.77;2.40;;;21.40;61.00;;;;;;5056634;28;20194;-94
2022/08/29 01:56:36;;;;;;;6.33;2.77;;;21.40;61.10;;;;;;5056124;28;20200;-94
2022/08/29 02:01:59;;;;;;;7.33;3.03;;;21.40;61.50;;;;;;5054164;28;20644;-94
2022/08/29 02:04:26;;;;;;;9.60;3.83;;;21.40;61.50;;;;;;5054802;28;20219;-95
2022/08/29 02:06:55;;;;;;;10.20;4.13;;;21.40;61.30;;;;;;5052987;28;20665;-95
2022/08/29 02:09:24;;;;;;;7.73;3.30;;;21.30;61.40;;;;;;5054830;28;20211;-95
2022/08/29 02:11:54;;;;;;;6.00;2.60;;;21.30;61.40;;;;;;5056045;28;20847;-94
2022/08/29 02:14:22;;;;;;;8.00;3.00;;;21.30;61.50;;;;;;5055745;28;20254;-94
2022/08/29 02:16:52;;;;;;;4.77;2.40;;;21.30;61.40;;;;;;5056765;28;20212;-95
2022/08/29 02:19:42;;;;;;;7.83;3.30;;;21.30;61.60;;;;;;5055333;28;20196;-94
2022/08/29 02:22:10;;;;;;;8.37;3.47;;;21.20;62.30;;;;;;5055798;28;20196;-94
2022/08/29 02:24:38;;;;;;;9.60;4.00;;;21.30;61.70;;;;;;5055116;28;20212;-94
2022/08/29 02:29:47;;;;;;;7.47;2.83;;;21.20;62.30;;;;;;5065368;23;20250;-94
2022/08/29 02:32:18;;;;;;;7.57;2.73;;;21.10;62.00;;;;;;5061587;23;20277;-95
2022/08/29 02:34:47;;;;;;;7.47;2.93;;;21.10;62.90;;;;;;5055645;28;20258;-93
2022/08/29 02:37:43;;;;;;;9.63;3.43;;;21.20;62.10;;;;;;5056000;28;20266;-94
2022/08/29 02:40:11;;;;;;;11.93;4.27;;;21.20;62.80;;;;;;5055807;28;20196;-95
2022/08/29 02:42:39;;;;;;;12.73;4.47;;;21.10;62.00;;;;;;5055153;28;20280;-94
2022/08/29 02:45:11;;;;;;;6.57;2.97;;;21.10;62.20;;;;;;5055477;28;20222;-94
2022/08/29 02:47:39;;;;;;;6.83;3.20;;;21.10;62.40;;;;;;5053151;28;20211;-94
2022/08/29 02:50:09;;;;;;;7.27;3.30;;;21.10;62.30;;;;;;5059894;28;20224;-94
2022/08/29 02:52:36;;;;;;;10.47;3.83;;;21.00;62.40;;;;;;5057265;28;20266;-94
2022/08/29 02:55:05;;;;;;;14.37;5.27;;;21.00;62.30;;;;;;5054378;28;20207;-95
2022/08/29 02:57:32;;;;;;;12.77;5.00;;;21.00;62.50;;;;;;5053924;28;20258;-95
2022/08/29 02:59:59;;;;;;;7.00;2.77;;;21.00;62.50;;;;;;5054816;28;20608;-96
2022/08/29 03:02:28;;;;;;;8.93;3.43;;;21.00;62.70;;;;;;5054909;28;20196;-95
2022/08/29 03:04:55;;;;;;;12.57;4.63;;;21.00;62.80;;;;;;5065609;28;20224;-95
2022/08/29 03:07:22;;;;;;;10.17;4.13;;;20.90;62.70;;;;;;5075015;28;20238;-95
2022/08/29 03:09:50;;;;;;;8.80;3.73;;;21.00;62.90;;;;;;5072159;28;20540;-96
2022/08/29 03:12:21;;;;;;;7.70;3.23;;;21.00;63.00;;;;;;5062724;28;20204;-95
2022/08/29 03:14:50;;;;;;;10.03;4.00;;;20.90;63.90;;;;;;5061779;28;20215;-93
2022/08/29 03:17:19;;;;;;;9.50;4.50;;;20.90;63.10;;;;;;5056001;28;20200;-91
2022/08/29 03:19:47;;;;;;;6.23;2.93;;;20.90;63.10;;;;;;5056358;28;20650;-94
2022/08/29 03:22:18;;;;;;;12.93;5.10;;;20.90;63.20;;;;;;5055838;28;20274;-93
2022/08/29 03:24:46;;;;;;;8.67;3.63;;;20.80;63.00;;;;;;5054940;28;20231;-93
2022/08/29 03:27:17;;;;;;;7.27;2.83;;;20.90;62.90;;;;;;5056886;28;20255;-92
2022/08/29 03:29:46;;;;;;;6.50;2.83;;;20.80;63.00;;;;;;5058275;28;20296;-92
2022/08/29 03:32:14;;;;;;;10.23;4.07;;;20.80;63.20;;;;;;5056775;28;20215;-93
2022/08/29 03:35:18;;;;;;;5.13;2.43;;;20.80;63.30;;;;;;5053711;28;20208;-95
2022/08/29 03:37:54;;;;;;;9.63;3.83;;;20.80;64.00;;;;;;5058446;28;20204;-95
2022/08/29 03:40:23;;;;;;;9.43;4.13;;;20.80;63.70;;;;;;5055468;28;20227;-92
2022/08/29 03:42:52;;;;;;;5.77;2.70;;;20.70;63.40;;;;;;5059086;28;20216;-94
2022/08/29 03:45:32;;;;;;;6.40;3.10;;;20.70;63.30;;;;;;5061256;28;20227;-94
2022/08/29 03:48:01;;;;;;;6.70;2.10;;;20.70;63.40;;;;;;5067341;28;20203;-95
2022/08/29 03:51:34;;;;;;;4.33;2.40;;;20.70;63.60;;;;;;5064038;28;20188;-95
2022/08/29 03:54:16;;;;;;;7.30;2.83;;;20.70;64.20;;;;;;5059655;28;20207;-94
2022/08/29 03:56:47;;;;;;;6.63;2.93;;;20.60;63.80;;;;;;5059053;28;20230;-94
2022/08/29 03:59:16;;;;;;;5.27;2.90;;;20.60;63.50;;;;;;5056308;28;20679;-94
2022/08/29 04:01:46;;;;;;;5.90;3.17;;;20.60;63.70;;;;;;5059295;28;20262;-92
2022/08/29 04:05:05;;;;;;;9.63;3.83;;;20.50;63.60;;;;;;5058845;28;20702;-94
2022/08/29 04:07:13;;;;;;;9.37;3.87;;;20.50;63.70;;;;;;5058803;28;20208;-95
2022/08/29 04:12:45;;;;;;;8.33;3.57;;;20.50;64.30;;;;;;5058087;28;20208;-95
2022/08/29 04:18:06;;;;;;;9.63;4.17;;;20.50;64.00;;;;;;5059410;28;20201;-94
2022/08/29 04:20:38;;;;;;;8.03;3.13;;;20.50;64.00;;;;;;5056541;28;20217;-94
2022/08/29 04:23:06;;;;;;;11.77;4.50;;;20.40;63.90;;;;;;5055900;28;20231;-95
2022/08/29 04:25:40;;;;;;;7.00;3.13;;;20.40;63.90;;;;;;5055988;28;20204;-94
2022/08/29 04:28:12;;;;;;;11.20;4.17;;;20.40;64.10;;;;;;5056952;28;20263;-94
2022/08/29 04:30:41;;;;;;;10.50;4.23;;;20.40;64.10;;;;;;5055447;28;20285;-93
2022/08/29 04:33:10;;;;;;;7.97;3.27;;;20.40;64.00;;;;;;5058745;28;20219;-94
2022/08/29 04:35:41;;;;;;;7.53;3.27;;;20.40;64.00;;;;;;5058789;28;20192;-94
2022/08/29 04:38:17;;;;;;;12.10;4.40;;;20.30;64.00;;;;;;5059125;28;20192;-94
2022/08/29 04:40:46;;;;;;;6.27;2.77;;;20.30;64.10;;;;;;5058463;28;20238;-94
2022/08/29 04:43:15;;;;;;;8.70;3.33;;;20.30;64.10;;;;;;5057594;28;20254;-93
2022/08/29 04:45:45;;;;;;;10.17;4.20;;;20.30;64.00;;;;;;5043061;28;20205;-91
2022/08/29 04:48:15;;;;;;;5.33;3.13;;;20.30;64.10;;;;;;5036512;28;20209;-93
2022/08/29 04:50:42;;;;;;;9.73;3.20;;;20.30;64.00;;;;;;5039037;28;20216;-94
2022/08/29 04:53:11;;;;;;;5.43;2.63;;;20.20;63.70;;;;;;5037060;28;20984;-93
2022/08/29 04:55:40;;;;;;;9.30;3.90;;;20.20;63.90;;;;;;5035929;28;20216;-94
2022/08/29 04:58:14;;;;;;;10.70;4.33;;;20.20;64.00;;;;;;5039923;28;20196;-93
2022/08/29 05:00:47;;;;;;;8.93;3.93;;;20.20;64.20;;;;;;5035858;28;20650;-93
2022/08/29 05:03:16;;;;;;;4.53;3.33;;;20.20;64.20;;;;;;5036044;28;20211;-93
2022/08/29 05:05:57;;;;;;;7.93;3.77;;;20.20;64.10;;;;;;5035128;28;20193;-93
2022/08/29 05:08:25;;;;;;;7.40;3.90;;;20.10;64.30;;;;;;5035952;28;20258;-94
2022/08/29 05:10:57;;;;;;;7.70;4.10;;;20.10;64.00;;;;;;5035813;28;20210;-92
2022/08/29 05:13:32;;;;;;;52.70;17.07;;;20.10;64.00;;;;;;5044753;23;20213;-94
2022/08/29 05:16:05;;;;;;;11.13;4.43;;;20.10;64.30;;;;;;5056820;28;20227;-94
2022/08/29 05:18:34;;;;;;;8.27;4.23;;;20.10;64.00;;;;;;5056470;28;20203;-94
2022/08/29 05:21:07;;;;;;;9.27;3.97;;;20.00;63.90;;;;;;5054835;28;20723;-95
2022/08/29 05:23:39;;;;;;;7.83;4.30;;;20.00;64.30;;;;;;5056695;28;20771;-94
2022/08/29 05:26:08;;;;;;;10.17;4.33;;;20.10;64.30;;;;;;5056492;28;20208;-94
2022/08/29 05:28:55;;;;;;;9.10;4.40;;;20.00;64.20;;;;;;5057425;28;20210;-94
2022/08/29 05:31:22;;;;;;;11.27;4.90;;;20.00;64.70;;;;;;5035040;28;20566;-94
2022/08/29 05:33:50;;;;;;;7.90;4.17;;;20.00;64.20;;;;;;5035888;28;20193;-93
2022/08/29 05:36:19;;;;;;;18.80;4.67;;;20.00;64.30;;;;;;5035114;28;20204;-94
2022/08/29 05:39:05;;;;;;;14.17;5.13;;;20.00;64.40;;;;;;5038015;28;20224;-94
2022/08/29 05:41:32;;;;;;;11.07;4.83;;;20.00;64.90;;;;;;5035817;28;20216;-93
2022/08/29 05:44:03;;;;;;;11.87;5.33;;;20.00;64.40;;;;;;5037559;28;20227;-93
2022/08/29 05:46:30;;;;;;;13.33;5.13;;;19.90;65.20;;;;;;5042268;28;20698;-93
2022/08/29 05:48:57;;;;;;;19.07;6.83;;;19.90;64.50;;;;;;5039247;28;20231;-93
2022/08/29 05:51:24;;;;;;;8.90;4.50;;;19.90;64.60;;;;;;5038961;28;20566;-94
2022/08/29 05:53:54;;;;;;;10.30;4.33;;;20.00;64.80;;;;;;5036298;28;20208;-94
2022/08/29 05:56:24;;;;;;;10.70;4.30;;;20.00;64.80;;;;;;5034601;28;20200;-93
2022/08/29 05:59:00;;;;;;;10.90;4.80;;;19.90;64.80;;;;;;5032747;28;20204;-93
2022/08/29 06:01:32;;;;;;;9.07;3.83;;;19.90;64.90;;;;;;5033995;28;20254;-93
2022/08/29 06:04:03;;;;;;;10.97;4.53;;;20.00;64.90;;;;;;5033442;28;20240;-93
2022/08/29 06:06:33;;;;;;;16.17;5.47;;;20.00;65.00;;;;;;5034679;28;20223;-92
2022/08/29 06:09:03;;;;;;;7.80;3.67;;;20.00;64.70;;;;;;5035073;28;20204;-92
2022/08/29 06:11:37;;;;;;;10.50;4.03;;;20.00;64.80;;;;;;5034967;28;20204;-92
2022/08/29 06:14:04;;;;;;;9.33;4.63;;;20.00;64.90;;;;;;5034217;28;20215;-93
2022/08/29 06:16:39;;;;;;;9.63;4.00;;;20.00;64.70;;;;;;5033380;28;20205;-92
2022/08/29 06:19:13;;;;;;;12.93;4.67;;;20.10;65.10;;;;;;5035184;28;20561;-93
2022/08/29 06:21:41;;;;;;;9.63;4.33;;;20.10;65.00;;;;;;5033695;28;20653;-93
2022/08/29 06:24:10;;;;;;;10.37;4.67;;;20.10;64.70;;;;;;5035248;28;20235;-92
2022/08/29 06:26:38;;;;;;;6.90;3.30;;;20.10;64.70;;;;;;5033380;28;20197;-93
2022/08/29 06:29:09;;;;;;;7.07;3.30;;;20.20;64.80;;;;;;5033678;28;20235;-92
2022/08/29 06:34:23;;;;;;;12.77;4.67;;;20.30;64.90;;;;;;5033369;28;20204;-93
2022/08/29 06:36:51;;;;;;;9.80;4.47;;;20.30;64.70;;;;;;5035552;28;20291;-93
2022/08/29 06:39:19;;;;;;;13.70;4.73;;;20.30;64.60;;;;;;5038205;28;20200;-92
2022/08/29 06:41:47;;;;;;;7.57;3.43;;;20.30;64.50;;;;;;5036983;28;20201;-93
2022/08/29 06:44:16;;;;;;;9.60;3.80;;;20.40;64.50;;;;;;5036648;28;20221;-92
2022/08/29 06:46:48;;;;;;;8.13;3.50;;;20.40;64.40;;;;;;5036280;28;20216;-92
2022/08/29 06:49:17;;;;;;;11.07;4.80;;;20.40;64.50;;;;;;5036591;28;20296;-93
2022/08/29 06:54:29;;;;;;;12.90;4.87;;;20.50;64.40;;;;;;5054997;23;20967;-92
2022/08/29 06:57:00;;;;;;;10.77;4.47;;;20.50;64.40;;;;;;5056880;28;20200;-92
2022/08/29 06:59:27;;;;;;;8.97;4.43;;;20.50;64.30;;;;;;5060619;28;20192;-93
2022/08/29 07:01:56;;;;;;;9.17;3.50;;;20.60;64.40;;;;;;5071697;28;20210;-89
2022/08/29 07:04:26;;;;;;;13.70;5.37;;;20.60;64.40;;;;;;5072703;28;20234;-93
2022/08/29 07:06:56;;;;;;;14.30;4.00;;;20.60;64.40;;;;;;5073448;28;20214;-91
2022/08/29 07:09:31;;;;;;;11.10;4.50;;;20.70;64.50;;;;;;5073009;28;20200;-91
2022/08/29 07:12:06;;;;;;;12.13;3.93;;;20.70;64.20;;;;;;5065580;28;20210;-91
2022/08/29 07:17:28;;;;;;;9.47;3.07;;;20.80;63.90;;;;;;5070454;28;20227;-92
2022/08/29 07:20:00;;;;;;;9.73;3.43;;;20.90;63.80;;;;;;5066673;28;20204;-92
2022/08/29 07:22:31;;;;;;;9.40;3.77;;;20.90;63.80;;;;;;5064668;28;20601;-91
2022/08/29 07:28:18;;;;;;;10.57;4.17;;;21.00;63.30;;;;;;5075664;23;20273;-91
2022/08/29 07:30:47;;;;;;;10.33;3.80;;;21.10;63.30;;;;;;5067783;28;20247;-92
2022/08/29 07:33:30;;;;;;;8.00;3.53;;;21.10;63.20;;;;;;5066316;28;20201;-91
2022/08/29 07:36:21;;;;;;;16.13;5.57;;;21.10;62.70;;;;;;5068745;28;20210;-92
2022/08/29 07:38:51;;;;;;;8.87;3.27;;;21.20;62.70;;;;;;5069123;28;20286;-91
2022/08/29 07:41:24;;;;;;;10.50;4.30;;;21.20;62.60;;;;;;5062890;28;20220;-92
2022/08/29 07:44:01;;;;;;;13.17;4.27;;;21.30;62.50;;;;;;5066977;28;20216;-92
2022/08/29 07:46:30;;;;;;;11.30;4.47;;;21.30;62.30;;;;;;5066223;28;20204;-92
2022/08/29 07:49:15;;;;;;;12.47;5.47;;;21.40;62.60;;;;;;5064461;28;20197;-92
2022/08/29 07:51:45;;;;;;;11.30;5.03;;;21.40;61.90;;;;;;5063072;28;20294;-93
2022/08/29 07:54:17;;;;;;;8.27;3.90;;;21.40;62.00;;;;;;5065363;28;20219;-91
2022/08/29 08:05:15;;;;;;;8.93;4.80;;;21.60;61.60;;;;;;5071729;28;20224;-91
2022/08/29 08:07:42;;;;;;;14.80;5.47;;;21.70;61.50;;;;;;5057741;28;20212;-91
2022/08/29 08:10:10;;;;;;;11.67;5.90;;;21.70;61.50;;;;;;5057118;28;20658;-93
2022/08/29 08:12:38;;;;;;;12.63;5.10;;;21.80;61.40;;;;;;5059057;28;20196;-93
2022/08/29 08:15:09;;;;;;;7.70;4.43;;;21.80;61.90;;;;;;5058568;28;20210;-92
2022/08/29 08:17:44;;;;;;;10.33;4.57;;;21.90;60.90;;;;;;5055813;28;20211;-91
2022/08/29 08:20:20;;;;;;;10.60;4.33;;;21.90;60.30;;;;;;5058274;28;20234;-91
2022/08/29 08:22:55;;;;;;;7.57;3.30;;;22.10;60.30;;;;;;5059510;28;20332;-90
2022/08/29 08:28:03;;;;;;;8.33;3.77;;;22.20;59.90;;;;;;5056101;28;20216;-92
2022/08/29 08:30:31;;;;;;;14.60;4.67;;;22.30;59.80;;;;;;5051918;28;20257;-91
2022/08/29 08:32:58;;;;;;;11.00;3.70;;;22.40;59.50;;;;;;5056249;28;20208;-93
2022/08/29 08:35:28;;;;;;;10.83;4.70;;;22.40;59.30;;;;;;5054838;28;20253;-92
2022/08/29 08:37:56;;;;;;;8.53;3.53;;;22.50;59.00;;;;;;5055620;28;20208;-92
2022/08/29 08:40:27;;;;;;;10.27;4.43;;;22.60;59.10;;;;;;5054408;28;20210;-92
2022/08/29 08:42:59;;;;;;;15.30;5.50;;;22.60;59.10;;;;;;5054625;28;20216;-92
2022/08/29 08:45:33;;;;;;;10.10;3.90;;;22.70;58.20;;;;;;5054136;28;20832;-92
2022/08/29 08:48:36;;;;;;;14.23;5.23;;;22.80;57.90;;;;;;5054448;28;20203;-92
2022/08/29 08:51:23;;;;;;;6.97;3.37;;;22.90;57.30;;;;;;5053045;28;20695;-91
2022/08/29 08:53:57;;;;;;;7.87;3.77;;;23.10;57.70;;;;;;5055396;28;20228;-92
2022/08/29 08:56:34;;;;;;;8.03;3.47;;;23.10;57.30;;;;;;5054895;28;20266;-90
2022/08/29 08:59:08;;;;;;;7.47;3.43;;;23.30;57.20;;;;;;5052303;28;20195;-92
2022/08/29 09:01:41;;;;;;;8.27;3.33;;;23.40;57.30;;;;;;5059483;28;20208;-92
2022/08/29 09:04:46;;;;;;;6.33;3.03;;;23.60;56.80;;;;;;5056287;28;20207;-90
2022/08/29 09:07:35;;;;;;;6.73;2.93;;;23.70;56.20;;;;;;5052961;28;20699;-91
2022/08/29 09:10:22;;;;;;;16.00;4.60;;;24.00;56.20;;;;;;5050402;28;20242;-94
2022/08/29 09:13:05;;;;;;;7.87;3.00;;;24.20;56.10;;;;;;5054261;28;20207;-92
2022/08/29 09:15:42;;;;;;;9.70;3.40;;;24.40;55.90;;;;;;5054301;28;20203;-93
2022/08/29 09:18:48;;;;;;;10.40;2.97;;;24.60;55.70;;;;;;5051610;28;20685;-92
2022/08/29 09:21:18;;;;;;;8.90;3.47;;;24.90;55.10;;;;;;5040842;28;20204;-92
2022/08/29 09:26:56;;;;;;;7.87;3.33;;;25.40;54.50;;;;;;5052974;28;20265;-93
2022/08/29 09:29:31;;;;;;;6.73;2.83;;;25.70;55.40;;;;;;5053568;28;20231;-91
2022/08/29 09:32:15;;;;;;;10.03;4.07;;;25.90;54.20;;;;;;5054056;28;20210;-93
2022/08/29 09:34:45;;;;;;;10.37;4.00;;;26.10;53.10;;;;;;5052250;28;20227;-93
2022/08/29 09:37:31;;;;;;;12.03;4.33;;;26.30;54.10;;;;;;5049998;28;20196;-92
2022/08/29 09:43:03;;;;;;;4.93;2.87;;;26.80;52.80;;;;;;5053894;28;20242;-91
2022/08/29 09:45:30;;;;;;;10.20;4.10;;;27.10;51.60;;;;;;5056477;28;20228;-92
2022/08/29 09:48:17;;;;;;;12.17;5.07;;;27.20;53.10;;;;;;5052158;28;20295;-91
2022/08/29 09:50:46;;;;;;;11.43;4.53;;;27.40;51.50;;;;;;5049146;28;20246;-92
2022/08/29 09:53:24;;;;;;;6.63;3.50;;;27.60;51.90;;;;;;5052200;28;20200;-93
2022/08/29 09:55:56;;;;;;;7.50;3.43;;;27.80;50.30;;;;;;5053637;28;20613;-91
2022/08/29 09:58:33;;;;;;;7.60;3.77;;;27.90;50.00;;;;;;5050148;28;20244;-92
2022/08/29 10:01:37;;;;;;;7.13;3.73;;;28.10;49.60;;;;;;5049696;28;20195;-92
2022/08/29 10:04:07;;;;;;;10.23;3.57;;;28.20;48.10;;;;;;5048475;28;20287;-92
2022/08/29 10:06:39;;;;;;;8.43;4.00;;;28.30;49.80;;;;;;5049194;28;20215;-92
2022/08/29 10:09:08;;;;;;;6.47;3.50;;;28.50;49.30;;;;;;5049403;28;20627;-91
2022/08/29 10:11:48;;;;;;;7.93;3.73;;;28.60;49.40;;;;;;5050390;28;20200;-93
2022/08/29 10:14:23;;;;;;;8.07;3.67;;;28.70;48.40;;;;;;5052972;28;20660;-91
2022/08/29 10:18:19;;;;;;;6.57;3.63;;;28.80;48.40;;;;;;5052641;28;20199;-92
2022/08/29 10:19:48;;;;;;;6.37;3.30;;;29.00;48.60;;;;;;5051143;28;20576;-93
2022/08/29 10:22:27;;;;;;;8.70;3.60;;;29.10;48.00;;;;;;5052725;28;20200;-92
2022/08/29 10:25:00;;;;;;;8.37;4.20;;;29.30;47.20;;;;;;5052437;28;20572;-91
2022/08/29 10:27:49;;;;;;;8.33;3.80;;;29.40;46.90;;;;;;5052721;28;20212;-92
2022/08/29 10:30:20;;;;;;;9.43;4.20;;;29.40;46.10;;;;;;5052379;28;20224;-92
2022/08/29 10:33:08;;;;;;;6.53;3.47;;;29.60;47.40;;;;;;5053639;28;20231;-90
2022/08/29 10:35:39;;;;;;;5.93;3.50;;;29.70;45.50;;;;;;5056885;28;20662;-90
2022/08/29 10:41:32;;;;;;;7.73;3.87;;;29.90;45.50;;;;;;5043194;28;20255;-92
2022/08/29 10:47:31;;;;;;;11.05;5.10;;;30.00;45.80;;;;;;5056503;28;20241;-91
2022/08/29 10:50:11;;;;;;;6.90;3.13;;;30.10;44.90;;;;;;5064360;28;20249;-93
2022/08/29 10:52:52;;;;;;;6.23;3.83;;;30.20;45.30;;;;;;5061673;28;20512;-91
2022/08/29 10:55:49;;;;;;;7.43;3.57;;;30.30;44.60;;;;;;5055410;28;20199;-92
2022/08/29 10:58:37;;;;;;;9.35;4.28;;;30.40;44.10;;;;;;5040704;28;20574;-89
2022/08/29 11:01:14;;;;;;;6.80;3.73;;;30.40;44.10;;;;;;5053858;28;20190;-91
2022/08/29 11:03:49;;;;;;;6.87;3.67;;;30.50;43.50;;;;;;5071265;28;20230;-91
2022/08/29 11:06:22;;;;;;;5.40;2.90;;;30.50;43.60;;;;;;5072120;28;20258;-91
2022/08/29 11:08:56;;;;;;;5.20;2.95;;;30.60;43.90;;;;;;5063514;28;20204;-92
2022/08/29 11:11:31;;;;;;;3.13;2.23;;;30.70;43.10;;;;;;5057238;28;20294;-91
2022/08/29 11:14:02;;;;;;;3.92;2.55;;;30.70;42.60;;;;;;5056846;28;20234;-91
2022/08/29 11:16:40;;;;;;;7.65;3.85;;;30.70;42.90;;;;;;5055573;28;20953;-92
2022/08/29 11:19:17;;;;;;;8.30;3.90;;;30.80;42.70;;;;;;5052577;28;20254;-91
2022/08/29 11:21:51;;;;;;;8.63;4.28;;;30.90;41.90;;;;;;5052622;28;20208;-93
2022/08/29 11:24:20;;;;;;;5.38;3.25;;;30.90;42.40;;;;;;5052228;28;20280;-90
2022/08/29 11:26:57;;;;;;;6.88;3.45;;;31.00;42.60;;;;;;5051893;28;20278;-90
2022/08/29 11:29:36;;;;;;;6.93;3.75;;;31.00;41.50;;;;;;5051264;28;20230;-91
2022/08/29 11:32:09;;;;;;;6.40;3.50;;;31.10;41.70;;;;;;5055833;28;20215;-91
2022/08/29 11:34:50;;;;;;;5.53;3.35;;;31.20;41.60;;;;;;5060362;28;20200;-91
2022/08/29 11:37:45;;;;;;;5.95;3.47;;;31.30;41.50;;;;;;5065249;28;20239;-92
2022/08/29 11:40:21;;;;;;;8.18;4.43;;;31.30;41.40;;;;;;5047144;28;20200;-90
2022/08/29 11:42:51;;;;;;;8.25;4.40;;;31.50;41.20;;;;;;5051606;28;20208;-92
2022/08/29 11:45:26;;;;;;;6.82;3.95;;;31.50;41.70;;;;;;5051361;28;20204;-90
2022/08/29 11:48:03;;;;;;;7.60;4.05;;;31.60;40.60;;;;;;5050978;28;20726;-92
2022/08/29 11:50:33;;;;;;;6.32;3.67;;;31.60;39.90;;;;;;5050763;28;20203;-91
2022/08/29 11:53:08;;;;;;;8.85;4.47;;;31.60;41.00;;;;;;5051019;28;20208;-90
2022/08/29 11:55:38;;;;;;;5.85;3.70;;;31.70;40.10;;;;;;5051601;28;20204;-92
2022/08/29 11:58:44;;;;;;;7.30;4.28;;;31.80;40.50;;;;;;5051364;28;20230;-91
2022/08/29 12:01:32;;;;;;;8.43;4.47;;;31.80;39.20;;;;;;5050976;28;20199;-91
2022/08/29 12:04:01;;;;;;;7.25;4.13;;;31.90;40.30;;;;;;5049920;28;20293;-90
2022/08/29 12:06:57;;;;;;;8.00;4.40;;;32.00;39.80;;;;;;5051558;28;20216;-91
2022/08/29 12:09:45;;;;;;;5.32;3.25;;;32.10;39.10;;;;;;5050664;28;20208;-92
2022/08/29 12:12:17;;;;;;;6.57;4.18;;;32.20;38.70;;;;;;5051294;28;20211;-90
2022/08/29 12:14:45;;;;;;;7.05;4.22;;;32.30;39.00;;;;;;5050136;28;20211;-93
2022/08/29 12:17:42;;;;;;;5.18;3.58;;;32.30;39.20;;;;;;5050046;28;20653;-91
2022/08/29 12:20:38;;;;;;;6.05;3.72;;;32.40;38.60;;;;;;5049091;28;20253;-91
2022/08/29 12:23:08;;;;;;;7.07;3.88;;;32.60;38.50;;;;;;5050252;28;20295;-91
2022/08/29 12:25:47;;;;;;;6.70;4.18;;;32.60;39.10;;;;;;5050150;28;21102;-92
2022/08/29 12:28:50;;;;;;;11.10;4.93;;;32.70;38.10;;;;;;5051418;28;20215;-90
2022/08/29 12:31:39;;;;;;;9.75;4.65;;;32.80;37.70;;;;;;5007350;28;20212;-90
2022/08/29 12:34:22;;;;;;;19.67;9.38;;;32.80;37.20;;;;;;5119502;22;20266;-91
2022/08/29 12:37:17;;;;;;;9.73;4.32;;;32.90;37.50;;;;;;5049946;28;20200;-92
2022/08/29 12:42:57;;;;;;;8.55;3.97;;;33.00;38.40;;;;;;5061454;23;20226;-93
2022/08/29 12:45:38;;;;;;;5.32;3.05;;;33.10;37.10;;;;;;5022103;28;20270;-91
2022/08/29 12:48:08;;;;;;;8.55;4.15;;;33.10;37.60;;;;;;5051079;28;20636;-91
2022/08/29 12:50:42;;;;;;;7.68;3.58;;;33.20;37.70;;;;;;5051649;28;20196;-93
2022/08/29 12:53:18;;;;;;;8.90;4.10;;;33.20;37.40;;;;;;5049489;28;20209;-91
2022/08/29 12:55:48;;;;;;;7.25;3.95;;;33.20;36.90;;;;;;5049670;28;20664;-91
2022/08/29 12:58:35;;;;;;;9.40;4.50;;;33.20;37.60;;;;;;5049627;28;20295;-90
2022/08/29 13:01:04;;;;;;;12.05;5.07;;;33.10;37.30;;;;;;5050122;28;20243;-91
2022/08/29 13:03:54;;;;;;;9.32;5.10;;;33.10;37.70;;;;;;5050022;28;20211;-91
2022/08/29 13:06:21;;;;;;;7.72;4.35;;;33.10;36.30;;;;;;5049704;28;20324;-90
2022/08/29 13:08:50;;;;;;;7.47;4.28;;;33.10;37.30;;;;;;5049326;28;20204;-91
2022/08/29 13:11:23;;;;;;;7.65;4.03;;;33.10;36.80;;;;;;5050801;28;20235;-92
2022/08/29 13:14:39;;;;;;;11.25;5.20;;;33.10;36.80;;;;;;5049716;28;20200;-91
2022/08/29 13:17:16;;;;;;;7.10;4.07;;;33.00;36.70;;;;;;5049209;28;20212;-91
2022/08/29 13:20:32;;;;;;;8.25;3.70;;;33.10;37.00;;;;;;5049122;28;20196;-92
2022/08/29 13:23:17;;;;;;;10.25;3.92;;;33.10;36.50;;;;;;5049037;28;20214;-90
2022/08/29 13:25:54;;;;;;;6.68;3.28;;;33.10;36.60;;;;;;5050093;28;20199;-92
2022/08/29 13:28:31;;;;;;;9.95;4.22;;;33.20;36.40;;;;;;5049028;28;20235;-91
2022/08/29 13:31:34;;;;;;;8.60;3.97;;;33.20;36.00;;;;;;5048869;28;20208;-90
2022/08/29 13:34:21;;;;;;;9.38;4.72;;;33.30;35.70;;;;;;5029517;28;20204;-91
2022/08/29 13:37:06;;;;;;;9.45;4.22;;;33.30;35.80;;;;;;5031691;28;20189;-91
2022/08/29 13:39:47;;;;;;;8.05;4.05;;;33.20;35.90;;;;;;5029554;28;20216;-92
2022/08/29 13:42:22;;;;;;;8.57;4.13;;;33.20;35.60;;;;;;5030185;28;20208;-91
2022/08/29 13:45:13;;;;;;;6.70;3.58;;;33.20;36.90;;;;;;5030228;28;20204;-92
2022/08/29 13:48:11;;;;;;;8.20;4.00;;;33.20;36.00;;;;;;5033208;28;20228;-92
2022/08/29 13:50:39;;;;;;;9.20;4.18;;;33.30;36.10;;;;;;5033592;28;20212;-91
2022/08/29 13:53:06;;;;;;;7.20;4.20;;;33.30;36.70;;;;;;5033590;28;20236;-91
2022/08/29 13:55:34;;;;;;;8.00;4.57;;;33.30;36.60;;;;;;5033100;28;20295;-92
2022/08/29 13:58:03;;;;;;;9.95;4.53;;;33.40;36.20;;;;;;5033403;28;20197;-90
2022/08/29 14:00:32;;;;;;;9.27;4.40;;;33.40;36.00;;;;;;5032924;28;20208;-90
2022/08/29 14:03:01;;;;;;;7.13;3.53;;;33.40;36.40;;;;;;5033632;28;20205;-92
2022/08/29 14:05:29;;;;;;;8.30;3.80;;;33.40;36.50;;;;;;5032767;28;20205;-92
2022/08/29 14:07:59;;;;;;;8.85;4.15;;;33.40;37.00;;;;;;5032688;28;20251;-93
2022/08/29 14:10:26;;;;;;;9.02;4.28;;;33.40;36.50;;;;;;5032541;28;20208;-91
2022/08/29 14:12:54;;;;;;;7.28;4.15;;;33.40;36.60;;;;;;5032993;28;20205;-91
2022/08/29 14:15:22;;;;;;;7.30;3.20;;;33.50;36.40;;;;;;5032503;28;20209;-89
2022/08/29 14:17:49;;;;;;;8.75;3.90;;;33.40;36.20;;;;;;5032541;28;20209;-90
2022/08/29 14:20:18;;;;;;;7.85;3.83;;;33.40;36.50;;;;;;5032628;28;20204;-91
2022/08/29 14:22:46;;;;;;;9.25;4.28;;;33.30;36.10;;;;;;5032485;28;20298;-91